createdAt,value
2022-12-04T00:01:13.259Z,101678.68
2022-12-04T00:03:40.147Z,101686.05
2022-12-04T00:06:10.659Z,101686.91
2022-12-04T00:08:41.146Z,101688.98
2022-12-04T00:11:09.996Z,101686.23
2022-12-04T00:13:37.740Z,101687.77
2022-12-04T00:16:07.999Z,101691.88
2022-12-04T00:18:35.645Z,101693.77
2022-12-04T00:21:05.122Z,101686.90
2022-12-04T00:23:33.429Z,101687.25
2022-12-04T00:26:10.039Z,101686.72
2022-12-04T00:28:37.507Z,101691.69
2022-12-04T00:31:10.650Z,101695.29
2022-12-04T00:33:38.291Z,101699.23
2022-12-04T00:36:08.796Z,101695.30
2022-12-04T00:38:37.050Z,101697.18
2022-12-04T00:41:04.476Z,101696.48
2022-12-04T00:43:33.054Z,101697.17
2022-12-04T00:46:01.551Z,101697.69
2022-12-04T00:48:28.649Z,101699.75
2022-12-04T00:50:55.663Z,101698.20
2022-12-04T00:53:22.598Z,101701.11
2022-12-04T00:55:49.562Z,101696.66
2022-12-04T00:58:16.461Z,101699.39
2022-12-04T01:00:43.601Z,101697.52
2022-12-04T01:03:11.125Z,101690.66
2022-12-04T01:05:46.692Z,101690.49
2022-12-04T01:08:13.661Z,101686.37
2022-12-04T01:10:42.053Z,101686.04
2022-12-04T01:13:08.876Z,101686.02
2022-12-04T01:15:42.174Z,101677.29
2022-12-04T01:18:10.462Z,101688.60
2022-12-04T01:20:37.636Z,101683.30
2022-12-04T01:23:04.837Z,101678.16
2022-12-04T01:25:31.965Z,101663.92
2022-12-04T01:27:59.012Z,101674.04
2022-12-04T01:30:26.137Z,101671.13
2022-12-04T01:32:52.871Z,101669.25
2022-12-04T01:35:19.864Z,101669.93
2022-12-04T01:37:46.692Z,101666.85
2022-12-04T01:40:15.779Z,101667.02
2022-12-04T01:42:43.310Z,101669.58
2022-12-04T01:45:36.316Z,101667.70
2022-12-04T01:48:13.567Z,101667.36
2022-12-04T01:50:42.172Z,101670.79
2022-12-04T01:53:09.140Z,101667.71
2022-12-04T01:55:36.571Z,101668.91
2022-12-04T01:58:04.064Z,101669.42
2022-12-04T02:00:30.929Z,101664.78
2022-12-04T02:02:58.586Z,101663.25
2022-12-04T02:05:25.712Z,101664.79
2022-12-04T02:07:57.427Z,101664.27
2022-12-04T02:10:39.644Z,101663.93
2022-12-04T02:13:38.399Z,101667.18
2022-12-04T02:16:19.181Z,101662.21
2022-12-04T02:18:54.216Z,101665.13
2022-12-04T02:21:35.882Z,101665.14
2022-12-04T02:24:24.403Z,101666.15
2022-12-04T02:27:26.274Z,101665.30
2022-12-04T02:30:03.688Z,101672.66
2022-12-04T02:32:39.391Z,101675.40
2022-12-04T02:35:11.922Z,101671.46
2022-12-04T02:37:45.223Z,101671.30
2022-12-04T02:40:41.660Z,101674.20
2022-12-04T02:43:33.920Z,101671.29
2022-12-04T02:46:06.750Z,101664.27
2022-12-04T02:48:39.775Z,101664.46
2022-12-04T02:51:10.129Z,101666.17
2022-12-04T02:53:42.330Z,101665.65
2022-12-04T02:56:16.704Z,101664.80
2022-12-04T02:58:57.032Z,101664.45
2022-12-04T03:01:31.387Z,101665.64
2022-12-04T03:04:30.331Z,101668.71
2022-12-04T03:07:06.322Z,101664.44
2022-12-04T03:09:40.498Z,101669.57
2022-12-04T03:12:20.090Z,101668.90
2022-12-04T03:14:59.866Z,101665.64
2022-12-04T03:17:33.622Z,101664.27
2022-12-04T03:20:05.262Z,101665.80
2022-12-04T03:22:36.616Z,101661.02
2022-12-04T03:25:05.033Z,101661.52
2022-12-04T03:27:36.315Z,101659.30
2022-12-04T03:30:20.294Z,101659.98
2022-12-04T03:33:03.095Z,101655.54
2022-12-04T03:35:40.955Z,101660.33
2022-12-04T03:38:20.656Z,101663.75
2022-12-04T03:41:08.195Z,101666.32
2022-12-04T03:43:52.902Z,101661.89
2022-12-04T03:46:26.743Z,101659.31
2022-12-04T03:49:09.196Z,101658.11
2022-12-04T03:52:01.645Z,101664.95
2022-12-04T03:54:33.257Z,101667.70
2022-12-04T03:57:06.582Z,101673.52
2022-12-04T03:59:42.926Z,101667.52
2022-12-04T04:02:15.042Z,101671.11
2022-12-04T04:04:45.948Z,101674.86
2022-12-04T04:07:30.320Z,101672.65
2022-12-04T04:10:07.251Z,101674.02
2022-12-04T04:12:41.229Z,101673.33
2022-12-04T04:15:31.869Z,101675.73
2022-12-04T04:18:20.564Z,101673.00
2022-12-04T04:21:14.394Z,101678.47
2022-12-04T04:24:04.272Z,101681.20
2022-12-04T04:26:36.116Z,101684.95
2022-12-04T04:29:03.511Z,101687.19
2022-12-04T04:31:43.934Z,101687.52
2022-12-04T04:34:21.195Z,101684.94
2022-12-04T04:36:58.615Z,101688.70
2022-12-04T04:39:38.335Z,101690.41
2022-12-04T04:42:20.847Z,101689.71
2022-12-04T04:45:20.035Z,101689.55
2022-12-04T04:48:10.708Z,101689.55
2022-12-04T04:50:39.532Z,101692.29
2022-12-04T04:53:14.894Z,101693.98
2022-12-04T04:55:43.333Z,101694.67
2022-12-04T04:58:13.923Z,101690.73
2022-12-04T05:00:48.830Z,101690.22
2022-12-04T05:03:15.999Z,101688.84
2022-12-04T05:05:43.077Z,101689.54
2022-12-04T05:08:09.926Z,101688.33
2022-12-04T05:10:36.756Z,101691.08
2022-12-04T05:13:03.658Z,101692.95
2022-12-04T05:15:30.489Z,101695.52
2022-12-04T05:17:58.199Z,101698.42
2022-12-04T05:20:24.962Z,101693.81
2022-12-04T05:22:51.742Z,101691.05
2022-12-04T05:25:18.953Z,101710.06
2022-12-04T05:27:45.737Z,101706.64
2022-12-04T05:30:12.804Z,101704.93
2022-12-04T05:32:39.778Z,101706.32
2022-12-04T05:35:11.145Z,101706.64
2022-12-04T05:37:40.114Z,101698.61
2022-12-04T05:40:08.581Z,101698.95
2022-12-04T05:42:35.394Z,101705.97
2022-12-04T05:45:02.679Z,101709.21
2022-12-04T05:47:29.624Z,101716.41
2022-12-04T05:49:57.774Z,101715.88
2022-12-04T05:52:24.963Z,101718.79
2022-12-04T05:54:51.726Z,101722.38
2022-12-04T05:57:18.511Z,101722.89
2022-12-04T05:59:45.616Z,101723.23
2022-12-04T06:02:12.453Z,101720.84
2022-12-04T06:04:39.607Z,101719.65
2022-12-04T06:07:06.872Z,101716.93
2022-12-04T06:09:34.178Z,101720.35
2022-12-04T06:12:01.343Z,101720.54
2022-12-04T06:14:28.276Z,101726.36
2022-12-04T06:16:55.256Z,101728.59
2022-12-04T06:19:23.314Z,101729.45
2022-12-04T06:21:52.321Z,101725.86
2022-12-04T06:24:24.867Z,101715.58
2022-12-04T06:27:26.232Z,101717.66
2022-12-04T06:29:44.163Z,101716.27
2022-12-04T06:32:13.946Z,101716.96
2022-12-04T06:34:43.444Z,101719.02
2022-12-04T06:37:10.337Z,101718.52
2022-12-04T06:39:37.153Z,101720.40
2022-12-04T06:42:04.007Z,101721.42
2022-12-04T06:44:30.920Z,101722.79
2022-12-04T06:47:00.747Z,101729.30
2022-12-04T06:49:28.158Z,101732.89
2022-12-04T06:51:54.944Z,101731.52
2022-12-04T06:54:22.248Z,101733.07
2022-12-04T06:56:49.395Z,101736.83
2022-12-04T06:59:16.169Z,101732.05
2022-12-04T07:01:43.127Z,101732.38
2022-12-04T07:04:10.101Z,101735.64
2022-12-04T07:06:38.861Z,101736.84
2022-12-04T07:09:15.867Z,101739.25
2022-12-04T07:11:43.949Z,101736.00
2022-12-04T07:14:12.824Z,101734.66
2022-12-04T07:16:42.178Z,101733.98
2022-12-04T07:19:11.304Z,101735.02
2022-12-04T07:21:38.255Z,101735.54
2022-12-04T07:24:05.429Z,101732.80
2022-12-04T07:26:32.342Z,101735.02
2022-12-04T07:28:59.677Z,101737.42
2022-12-04T07:31:28.484Z,101739.13
2022-12-04T07:33:56.254Z,101737.92
2022-12-04T07:36:24.449Z,101737.94
2022-12-04T07:38:51.834Z,101740.17
2022-12-04T07:41:18.984Z,101736.39
2022-12-04T07:43:46.068Z,101740.00
2022-12-04T07:46:22.016Z,101741.20
2022-12-04T07:48:49.042Z,101744.81
2022-12-04T07:51:21.476Z,101743.09
2022-12-04T07:53:49.858Z,101744.79
2022-12-04T07:56:17.546Z,101747.04
2022-12-04T07:58:45.429Z,101748.41
2022-12-04T08:01:19.071Z,101754.40
2022-12-04T08:03:48.917Z,101757.65
2022-12-04T08:06:21.552Z,101765.20
2022-12-04T08:08:49.791Z,101759.55
2022-12-04T08:11:18.829Z,101762.28
2022-12-04T08:13:45.794Z,101756.13
2022-12-04T08:16:14.183Z,101757.49
2022-12-04T08:18:46.334Z,101752.53
2022-12-04T08:21:16.458Z,101749.63
2022-12-04T08:23:43.912Z,101741.91
2022-12-04T08:26:13.274Z,101742.95
2022-12-04T08:28:42.390Z,101734.04
2022-12-04T08:31:18.473Z,101730.61
2022-12-04T08:33:46.521Z,101729.76
2022-12-04T08:36:15.877Z,101728.22
2022-12-04T08:38:43.002Z,101723.08
2022-12-04T08:41:12.936Z,101720.85
2022-12-04T08:43:40.004Z,101719.15
2022-12-04T08:46:15.604Z,101716.23
2022-12-04T08:48:43.164Z,101718.27
2022-12-04T08:51:16.039Z,101719.13
2022-12-04T08:53:43.057Z,101723.95
2022-12-04T08:56:11.568Z,101719.31
2022-12-04T08:58:38.403Z,101715.89
2022-12-04T09:01:05.402Z,101720.69
2022-12-04T09:03:33.043Z,101713.66
2022-12-04T09:06:01.577Z,101714.69
2022-12-04T09:08:31.550Z,101715.38
2022-12-04T09:11:19.402Z,101719.66
2022-12-04T09:13:47.604Z,101714.52
2022-12-04T09:16:18.954Z,101714.52
2022-12-04T09:18:46.846Z,101709.55
2022-12-04T09:21:16.265Z,101706.96
2022-12-04T09:23:43.500Z,101706.96
2022-12-04T09:26:27.128Z,101706.63
2022-12-04T09:28:55.377Z,101703.54
2022-12-04T09:31:24.009Z,101704.39
2022-12-04T09:33:51.545Z,101702.67
2022-12-04T09:36:19.368Z,101706.11
2022-12-04T09:38:49.334Z,101702.85
2022-12-04T09:41:32.863Z,101696.86
2022-12-04T09:44:15.254Z,101695.31
2022-12-04T09:46:51.395Z,101693.08
2022-12-04T09:49:47.449Z,101685.19
2022-12-04T09:52:58.251Z,101683.66
2022-12-04T09:55:49.428Z,101681.93
2022-12-04T09:58:32.237Z,101684.16
2022-12-04T10:01:02.681Z,101684.50
2022-12-04T10:03:31.466Z,101685.17
2022-12-04T10:05:58.248Z,101682.44
2022-12-04T10:08:30.653Z,101680.89
2022-12-04T10:11:32.608Z,101668.36
2022-12-04T10:14:10.587Z,101672.31
2022-12-04T10:17:05.975Z,101674.38
2022-12-04T10:19:42.131Z,101670.59
2022-12-04T10:22:18.749Z,101669.23
2022-12-04T10:24:56.100Z,101661.66
2022-12-04T10:27:43.173Z,101651.36
2022-12-04T10:30:24.628Z,101651.54
2022-12-04T10:33:03.214Z,101656.19
2022-12-04T10:35:33.155Z,101654.45
2022-12-04T10:38:03.745Z,101652.23
2022-12-04T10:40:42.320Z,101650.00
2022-12-04T10:43:49.900Z,101648.29
2022-12-04T10:46:33.574Z,101646.93
2022-12-04T10:49:22.600Z,101646.95
2022-12-04T10:51:49.801Z,101646.42
2022-12-04T10:54:33.202Z,101646.25
2022-12-04T10:57:04.734Z,101642.67
2022-12-04T10:59:33.510Z,101645.56
2022-12-04T11:02:22.043Z,101641.13
2022-12-04T11:05:08.007Z,101638.89
2022-12-04T11:07:47.197Z,101637.00
2022-12-04T11:10:36.117Z,101635.98
2022-12-04T11:13:14.114Z,101643.02
2022-12-04T11:15:44.822Z,101647.99
2022-12-04T11:18:24.885Z,101646.11
2022-12-04T11:20:53.870Z,101639.27
2022-12-04T11:23:21.830Z,101639.60
2022-12-04T11:25:58.288Z,101633.77
2022-12-04T11:28:47.627Z,101626.06
2022-12-04T11:31:21.750Z,101625.89
2022-12-04T11:33:55.803Z,101624.35
2022-12-04T11:36:25.927Z,101627.10
2022-12-04T11:39:02.613Z,101629.83
2022-12-04T11:41:32.545Z,101628.45
2022-12-04T11:44:00.974Z,101638.74
2022-12-04T11:46:33.434Z,101635.84
2022-12-04T11:49:02.799Z,101625.38
2022-12-04T11:51:45.037Z,101623.66
2022-12-04T11:54:27.097Z,101618.69
2022-12-04T11:57:09.334Z,101622.61
2022-12-04T11:59:44.938Z,101623.31
2022-12-04T12:02:28.511Z,101626.92
2022-12-04T12:05:01.680Z,101624.36
2022-12-04T12:07:41.838Z,101621.44
2022-12-04T12:10:33.856Z,101620.74
2022-12-04T12:13:22.278Z,101615.23
2022-12-04T12:15:52.161Z,101613.87
2022-12-04T12:18:36.909Z,101614.89
2022-12-04T12:21:38.373Z,101615.06
2022-12-04T12:24:26.716Z,101617.81
2022-12-04T12:27:09.904Z,101622.25
2022-12-04T12:30:01.309Z,101621.39
2022-12-04T12:32:34.444Z,101623.27
2022-12-04T12:35:04.698Z,101618.85
2022-12-04T12:37:50.424Z,101617.65
2022-12-04T12:40:47.335Z,101613.88
2022-12-04T12:43:33.317Z,101615.27
2022-12-04T12:46:06.404Z,101615.95
2022-12-04T12:48:57.883Z,101615.45
2022-12-04T12:51:41.216Z,101613.23
2022-12-04T12:54:45.714Z,101620.25
2022-12-04T12:57:22.856Z,101618.54
2022-12-04T13:00:01.967Z,101613.75
2022-12-04T13:02:36.592Z,101609.63
2022-12-04T13:05:12.690Z,101611.01
2022-12-04T13:07:47.426Z,101608.09
2022-12-04T13:10:19.628Z,101612.55
2022-12-04T13:13:15.747Z,101612.39
2022-12-04T13:15:51.533Z,101605.36
2022-12-04T13:18:30.629Z,101599.20
2022-12-04T13:21:02.934Z,101605.19
2022-12-04T13:23:57.789Z,101610.84
2022-12-04T13:26:30.339Z,101610.67
2022-12-04T13:29:13.044Z,101613.07
2022-12-04T13:32:15.774Z,101613.92
2022-12-04T13:35:08.905Z,101618.39
2022-12-04T13:37:49.404Z,101617.88
2022-12-04T13:40:28.484Z,101615.30
2022-12-04T13:43:10.404Z,101611.88
2022-12-04T13:45:39.815Z,101613.77
2022-12-04T13:48:09.191Z,101614.11
2022-12-04T13:50:38.448Z,101615.98
2022-12-04T13:53:05.992Z,101615.99
2022-12-04T13:55:38.097Z,101619.93
2022-12-04T13:58:11.026Z,101624.21
2022-12-04T14:00:43.090Z,101631.41
2022-12-04T14:03:38.268Z,101631.23
2022-12-04T14:06:21.556Z,101632.27
2022-12-04T14:08:56.263Z,101634.66
2022-12-04T14:11:24.275Z,101641.85
2022-12-04T14:13:57.657Z,101647.48
2022-12-04T14:17:03.887Z,101648.20
2022-12-04T14:19:39.210Z,101643.40
2022-12-04T14:22:06.114Z,101639.63
2022-12-04T14:24:39.273Z,101639.80
2022-12-04T14:27:34.257Z,101640.80
2022-12-04T14:30:02.334Z,101639.27
2022-12-04T14:32:33.217Z,101638.95
2022-12-04T14:35:01.863Z,101639.78
2022-12-04T14:37:35.965Z,101639.61
2022-12-04T14:40:07.188Z,101636.02
2022-12-04T14:42:39.004Z,101640.48
2022-12-04T14:45:36.187Z,101640.47
2022-12-04T14:48:21.798Z,101637.20
2022-12-04T14:51:04.224Z,101640.79
2022-12-04T14:53:59.523Z,101649.19
2022-12-04T14:56:46.359Z,101645.08
2022-12-04T14:59:21.855Z,101648.34
2022-12-04T15:01:51.495Z,101646.27
2022-12-04T15:04:28.599Z,101642.34
2022-12-04T15:07:00.235Z,101642.33
2022-12-04T15:09:47.871Z,101638.21
2022-12-04T15:12:33.495Z,101637.02
2022-12-04T15:15:14.300Z,101635.66
2022-12-04T15:17:41.740Z,101633.08
2022-12-04T15:20:14.037Z,101635.98
2022-12-04T15:22:41.093Z,101639.23
2022-12-04T15:25:34.573Z,101638.38
2022-12-04T15:28:16.278Z,101633.23
2022-12-04T15:30:44.243Z,101633.92
2022-12-04T15:33:21.828Z,101640.09
2022-12-04T15:35:58.517Z,101644.89
2022-12-04T15:38:25.982Z,101646.77
2022-12-04T15:40:56.446Z,101649.85
2022-12-04T15:43:30.090Z,101648.13
2022-12-04T15:45:57.736Z,101641.80
2022-12-04T15:48:30.297Z,101640.77
2022-12-04T15:51:07.048Z,101646.40
2022-12-04T15:53:39.690Z,101647.25
2022-12-04T15:56:15.705Z,101646.22
2022-12-04T15:58:53.375Z,101650.14
2022-12-04T16:01:20.845Z,101646.54
2022-12-04T16:03:50.855Z,101657.66
2022-12-04T16:06:29.503Z,101658.86
2022-12-04T16:09:12.565Z,101665.36
2022-12-04T16:11:40.529Z,101666.23
2022-12-04T16:14:07.365Z,101665.17
2022-12-04T16:16:41.525Z,101657.65
2022-12-04T16:19:14.542Z,101661.06
2022-12-04T16:21:41.406Z,101660.71
2022-12-04T16:24:12.368Z,101661.05
2022-12-04T16:26:40.873Z,101663.80
2022-12-04T16:29:10.915Z,101665.66
2022-12-04T16:31:38.861Z,101670.63
2022-12-04T16:34:06.078Z,101678.32
2022-12-04T16:36:32.920Z,101676.59
2022-12-04T16:38:59.975Z,101681.04
2022-12-04T16:41:26.721Z,101680.02
2022-12-04T16:43:56.219Z,101686.69
2022-12-04T16:46:25.480Z,101687.53
2022-12-04T16:48:52.603Z,101682.71
2022-12-04T16:51:23.234Z,101685.80
2022-12-04T16:53:51.382Z,101688.52
2022-12-04T16:56:18.587Z,101688.85
2022-12-04T16:58:45.552Z,101686.96
2022-12-04T17:01:22.936Z,101683.02
2022-12-04T17:03:50.124Z,101681.14
2022-12-04T17:06:17.674Z,101685.41
2022-12-04T17:08:45.395Z,101687.95
2022-12-04T17:11:16.532Z,101688.78
2022-12-04T17:13:44.894Z,101692.19
2022-12-04T17:16:15.063Z,101689.44
2022-12-04T17:18:43.084Z,101695.61
2022-12-04T17:21:13.343Z,101690.14
2022-12-04T17:23:40.636Z,101692.36
2022-12-04T17:26:10.680Z,101695.27
2022-12-04T17:28:38.402Z,101694.90
2022-12-04T17:31:14.120Z,101699.34
2022-12-04T17:33:42.589Z,101700.17
2022-12-04T17:36:14.882Z,101702.73
2022-12-04T17:38:43.532Z,101702.39
2022-12-04T17:41:15.536Z,101697.60
2022-12-04T17:43:43.761Z,101698.61
2022-12-04T17:46:13.226Z,101695.87
2022-12-04T17:48:40.652Z,101699.43
2022-12-04T17:51:19.145Z,101697.20
2022-12-04T17:53:46.817Z,101696.86
2022-12-04T17:56:17.131Z,101698.05
2022-12-04T17:58:45.986Z,101694.11
2022-12-04T18:01:19.511Z,101688.64
2022-12-04T18:04:12.973Z,101687.93
2022-12-04T18:06:41.730Z,101683.64
2022-12-04T18:09:12.307Z,101678.35
2022-12-04T18:11:41.319Z,101684.14
2022-12-04T18:14:12.568Z,101687.39
2022-12-04T18:16:46.000Z,101685.31
2022-12-04T18:19:14.037Z,101686.67
2022-12-04T18:21:41.483Z,101686.34
2022-12-04T18:24:09.167Z,101693.33
2022-12-04T18:26:39.264Z,101693.83
2022-12-04T18:29:07.444Z,101693.98
2022-12-04T18:31:34.877Z,101698.59
2022-12-04T18:34:01.724Z,101695.16
2022-12-04T18:36:30.471Z,101699.27
2022-12-04T18:39:00.452Z,101700.30
2022-12-04T18:41:28.305Z,101700.81
2022-12-04T18:43:57.572Z,101697.36
2022-12-04T18:46:25.282Z,101700.62
2022-12-04T18:48:53.759Z,101703.32
2022-12-04T18:51:32.361Z,101707.23
2022-12-04T18:54:02.187Z,101699.17
2022-12-04T18:56:30.375Z,101696.27
2022-12-04T18:58:59.617Z,101701.55
2022-12-04T19:01:27.987Z,101698.65
2022-12-04T19:03:57.640Z,101693.18
2022-12-04T19:06:33.124Z,101693.02
2022-12-04T19:09:04.415Z,101692.14
2022-12-04T19:11:31.472Z,101698.11
2022-12-04T19:13:59.339Z,101698.11
2022-12-04T19:16:26.925Z,101700.84
2022-12-04T19:18:55.286Z,101700.66
2022-12-04T19:21:23.040Z,101702.20
2022-12-04T19:23:54.433Z,101700.48
2022-12-04T19:26:21.381Z,101696.40
2022-12-04T19:28:48.924Z,101696.90
2022-12-04T19:31:18.549Z,101697.20
2022-12-04T19:33:45.880Z,101698.21
2022-12-04T19:36:14.385Z,101695.46
2022-12-04T19:38:42.181Z,101696.31
2022-12-04T19:41:13.463Z,101693.73
2022-12-04T19:43:43.309Z,101694.23
2022-12-04T19:46:12.191Z,101694.92
2022-12-04T19:48:39.656Z,101697.98
2022-12-04T19:51:10.104Z,101702.42
2022-12-04T19:53:40.884Z,101704.98
2022-12-04T19:56:18.048Z,101704.16
2022-12-04T19:58:46.678Z,101701.09
2022-12-04T20:01:16.420Z,101707.23
2022-12-04T20:03:44.225Z,101706.02
2022-12-04T20:06:17.516Z,101710.98
2022-12-04T20:08:45.689Z,101704.64
2022-12-04T20:11:16.943Z,101702.42
2022-12-04T20:13:45.581Z,101701.54
2022-12-04T20:16:16.344Z,101696.77
2022-12-04T20:18:44.303Z,101695.89
2022-12-04T20:21:12.205Z,101692.11
2022-12-04T20:24:00.070Z,101691.27
2022-12-04T20:26:31.647Z,101691.61
2022-12-04T20:29:00.374Z,101687.69
2022-12-04T20:31:30.185Z,101686.15
2022-12-04T20:33:59.173Z,101684.95
2022-12-04T20:36:29.426Z,101685.64
2022-12-04T20:38:59.375Z,101682.22
2022-12-04T20:41:29.806Z,101675.38
2022-12-04T20:43:59.949Z,101674.17
2022-12-04T20:46:32.949Z,101674.17
2022-12-04T20:49:01.386Z,101672.29
2022-12-04T20:51:31.925Z,101675.02
2022-12-04T20:54:00.291Z,101674.50
2022-12-04T20:56:29.941Z,101672.77
2022-12-04T20:58:58.192Z,101672.07
2022-12-04T21:01:26.212Z,101672.91
2022-12-04T21:03:53.932Z,101673.60
2022-12-04T21:06:34.909Z,101672.23
2022-12-04T21:09:09.875Z,101668.48
2022-12-04T21:11:45.247Z,101672.90
2022-12-04T21:14:50.905Z,101665.89
2022-12-04T21:17:19.243Z,101669.31
2022-12-04T21:19:50.135Z,101667.94
2022-12-04T21:22:18.746Z,101669.50
2022-12-04T21:24:45.893Z,101668.11
2022-12-04T21:27:17.358Z,101667.25
2022-12-04T21:29:48.078Z,101665.20
2022-12-04T21:32:18.607Z,101661.45
2022-12-04T21:34:45.779Z,101661.10
2022-12-04T21:37:12.709Z,101665.03
2022-12-04T21:39:39.723Z,101662.46
2022-12-04T21:42:25.072Z,101661.45
2022-12-04T21:44:51.928Z,101657.88
2022-12-04T21:47:18.915Z,101653.08
2022-12-04T21:49:47.217Z,101655.98
2022-12-04T21:52:18.151Z,101658.88
2022-12-04T21:54:48.306Z,101645.30
2022-12-04T21:57:15.193Z,101661.40
2022-12-04T21:59:42.014Z,101663.63
2022-12-04T22:02:11.041Z,101661.41
2022-12-04T22:04:38.653Z,101659.00
2022-12-04T22:07:05.829Z,101655.41
2022-12-04T22:09:35.916Z,101655.25
2022-12-04T22:12:10.339Z,101657.80
2022-12-04T22:14:46.862Z,101645.48
2022-12-04T22:17:14.167Z,101654.41
2022-12-04T22:19:40.909Z,101651.67
2022-12-04T22:22:07.812Z,101646.36
2022-12-04T22:24:34.658Z,101639.85
2022-12-04T22:27:01.417Z,101648.77
2022-12-04T22:29:58.014Z,101647.56
2022-12-04T22:32:15.108Z,101648.93
2022-12-04T22:34:45.587Z,101647.23
2022-12-04T22:37:12.826Z,101642.60
2022-12-04T22:39:40.023Z,101644.83
2022-12-04T22:42:06.849Z,101647.72
2022-12-04T22:44:34.549Z,101645.84
2022-12-04T22:47:01.783Z,101647.70
2022-12-04T22:49:28.744Z,101645.48
2022-12-04T22:51:56.356Z,101652.66
2022-12-04T22:54:23.301Z,101647.70
2022-12-04T22:56:50.748Z,101641.90
2022-12-04T22:59:17.623Z,101637.63
2022-12-04T23:01:44.435Z,101632.36
2022-12-04T23:04:11.222Z,101628.10
2022-12-04T23:06:38.015Z,101628.27
2022-12-04T23:09:12.407Z,101623.48
2022-12-04T23:11:40.811Z,101617.17
2022-12-04T23:14:10.775Z,101616.48
2022-12-04T23:16:41.579Z,101617.35
2022-12-04T23:19:11.894Z,101617.01
2022-12-04T23:21:39.769Z,101619.02
2022-12-04T23:24:06.785Z,101613.55
2022-12-04T23:26:37.307Z,101619.02
2022-12-04T23:29:17.871Z,101613.55
2022-12-04T23:31:52.825Z,101609.31
2022-12-04T23:34:19.604Z,101605.20
2022-12-04T23:36:46.329Z,101599.90
2022-12-04T23:39:13.215Z,101600.27
2022-12-04T23:41:46.088Z,101601.80
2022-12-04T23:44:13.003Z,101597.17
2022-12-04T23:46:39.866Z,101595.46
2022-12-04T23:49:06.721Z,101587.60
2022-12-04T23:51:33.520Z,101586.59
2022-12-04T23:54:00.332Z,101578.55
2022-12-04T23:56:28.106Z,101579.90
2022-12-04T23:58:56.831Z,101580.08
